createdAt,value
2023-02-19T00:01:32.463Z,10.40
2023-02-19T00:04:11.813Z,10.40
2023-02-19T00:06:38.893Z,10.40
2023-02-19T00:09:06.347Z,10.40
2023-02-19T00:11:35.230Z,10.40
2023-02-19T00:14:03.681Z,10.40
2023-02-19T00:16:39.689Z,10.40
2023-02-19T00:19:09.308Z,10.40
2023-02-19T00:21:36.270Z,10.40
2023-02-19T00:24:05.465Z,10.40
2023-02-19T00:26:33.074Z,10.40
2023-02-19T00:29:01.257Z,10.40
2023-02-19T00:31:32.987Z,10.40
2023-02-19T00:34:05.851Z,10.40
2023-02-19T00:36:36.245Z,10.40
2023-02-19T00:39:04.609Z,10.40
2023-02-19T00:41:32.165Z,10.40
2023-02-19T00:44:01.643Z,10.40
2023-02-19T00:46:38.039Z,10.40
2023-02-19T00:49:06.845Z,10.40
2023-02-19T00:51:36.117Z,10.40
2023-02-19T00:54:03.885Z,10.40
2023-02-19T00:56:30.821Z,10.30
2023-02-19T00:58:57.912Z,10.30
2023-02-19T01:01:25.320Z,10.30
2023-02-19T01:03:52.486Z,10.30
2023-02-19T01:06:20.977Z,10.30
2023-02-19T01:08:48.351Z,10.30
2023-02-19T01:11:16.456Z,10.30
2023-02-19T01:13:44.057Z,10.30
2023-02-19T01:16:16.949Z,10.30
2023-02-19T01:18:45.050Z,10.30
2023-02-19T01:21:16.642Z,10.20
2023-02-19T01:23:44.392Z,10.20
2023-02-19T01:26:14.586Z,10.20
2023-02-19T01:28:41.987Z,10.20
2023-02-19T01:31:14.081Z,10.20
2023-02-19T01:33:44.922Z,10.20
2023-02-19T01:36:11.963Z,10.20
2023-02-19T01:38:38.984Z,10.20
2023-02-19T01:41:10.188Z,10.20
2023-02-19T01:43:59.294Z,10.20
2023-02-19T01:46:28.448Z,10.20
2023-02-19T01:48:58.684Z,10.20
2023-02-19T01:51:26.484Z,10.20
2023-02-19T01:53:59.061Z,10.20
2023-02-19T01:56:27.745Z,10.20
2023-02-19T01:58:55.168Z,10.20
2023-02-19T02:01:22.190Z,10.20
2023-02-19T02:03:52.146Z,10.20
2023-02-19T02:06:25.854Z,10.20
2023-02-19T02:09:15.091Z,10.20
2023-02-19T02:11:49.297Z,10.20
2023-02-19T02:14:23.907Z,10.20
2023-02-19T02:16:56.564Z,10.20
2023-02-19T02:19:49.420Z,10.20
2023-02-19T02:22:31.098Z,10.20
2023-02-19T02:25:09.340Z,10.20
2023-02-19T02:28:13.141Z,10.20
2023-02-19T02:30:49.178Z,10.20
2023-02-19T02:33:41.377Z,10.20
2023-02-19T02:36:17.282Z,10.20
2023-02-19T02:38:46.710Z,10.10
2023-02-19T02:41:15.228Z,10.20
2023-02-19T02:43:42.552Z,10.20
2023-02-19T02:46:15.926Z,10.20
2023-02-19T02:48:57.580Z,10.20
2023-02-19T02:51:34.513Z,10.20
2023-02-19T02:54:42.376Z,10.20
2023-02-19T02:57:15.012Z,10.20
2023-02-19T02:59:49.596Z,10.20
2023-02-19T03:02:26.752Z,10.20
2023-02-19T03:05:21.471Z,10.20
2023-02-19T03:08:00.496Z,10.20
2023-02-19T03:10:36.221Z,10.20
2023-02-19T03:13:24.733Z,10.20
2023-02-19T03:16:21.286Z,10.10
2023-02-19T03:19:12.482Z,10.10
2023-02-19T03:21:43.771Z,10.20
2023-02-19T03:24:31.059Z,10.10
2023-02-19T03:27:02.560Z,10.10
2023-02-19T03:29:38.104Z,10.10
2023-02-19T03:32:27.906Z,10.10
2023-02-19T03:35:22.305Z,10.10
2023-02-19T03:37:58.920Z,10.10
2023-02-19T03:40:30.834Z,10.10
2023-02-19T03:43:17.399Z,10.10
2023-02-19T03:46:08.383Z,10.10
2023-02-19T03:48:40.046Z,10.10
2023-02-19T03:51:39.278Z,10.00
2023-02-19T03:54:19.693Z,10.00
2023-02-19T03:56:58.569Z,10.00
2023-02-19T03:59:28.760Z,10.00
2023-02-19T04:02:06.278Z,10.00
2023-02-19T04:04:51.395Z,10.00
2023-02-19T04:07:19.427Z,10.00
2023-02-19T04:09:50.039Z,10.00
2023-02-19T04:12:21.193Z,10.00
2023-02-19T04:14:51.361Z,9.90
2023-02-19T04:17:45.877Z,9.90
2023-02-19T04:20:14.026Z,9.90
2023-02-19T04:22:42.110Z,9.90
2023-02-19T04:25:09.654Z,9.90
2023-02-19T04:27:40.465Z,9.90
2023-02-19T04:30:09.444Z,9.90
2023-02-19T04:32:36.690Z,9.90
2023-02-19T04:35:04.001Z,9.90
2023-02-19T04:37:31.007Z,9.90
2023-02-19T04:39:58.014Z,9.90
2023-02-19T04:42:25.015Z,9.90
2023-02-19T04:44:52.027Z,9.80
2023-02-19T04:47:18.956Z,9.80
2023-02-19T04:49:46.285Z,9.80
2023-02-19T04:52:13.454Z,9.80
2023-02-19T04:54:40.464Z,9.80
2023-02-19T04:57:07.458Z,9.80
2023-02-19T04:59:34.595Z,9.80
2023-02-19T05:02:01.708Z,9.80
2023-02-19T05:04:28.840Z,9.80
2023-02-19T05:06:55.900Z,9.70
2023-02-19T05:09:22.989Z,9.70
2023-02-19T05:11:49.946Z,9.70
2023-02-19T05:14:17.357Z,9.70
2023-02-19T05:16:44.363Z,9.70
2023-02-19T05:19:12.762Z,9.70
2023-02-19T05:21:40.675Z,9.70
2023-02-19T05:24:08.045Z,9.70
2023-02-19T05:26:35.455Z,9.70
2023-02-19T05:29:02.797Z,9.70
2023-02-19T05:31:30.173Z,9.70
2023-02-19T05:33:57.239Z,9.70
2023-02-19T05:36:24.533Z,9.70
2023-02-19T05:38:56.587Z,9.70
2023-02-19T05:41:26.088Z,9.70
2023-02-19T05:43:53.968Z,9.70
2023-02-19T05:46:24.224Z,9.70
2023-02-19T05:48:52.748Z,9.70
2023-02-19T05:51:22.652Z,9.60
2023-02-19T05:53:50.240Z,9.60
2023-02-19T05:56:26.606Z,9.60
2023-02-19T05:58:54.581Z,9.60
2023-02-19T06:01:24.372Z,9.60
2023-02-19T06:03:51.521Z,9.60
2023-02-19T06:06:20.041Z,9.60
2023-02-19T06:08:49.749Z,9.60
2023-02-19T06:11:17.949Z,9.60
2023-02-19T06:13:45.516Z,9.60
2023-02-19T06:16:13.039Z,9.60
2023-02-19T06:18:41.382Z,9.60
2023-02-19T06:21:10.986Z,9.60
2023-02-19T06:23:39.294Z,9.60
2023-02-19T06:26:17.712Z,9.60
2023-02-19T06:28:45.760Z,9.50
2023-02-19T06:31:13.637Z,9.50
2023-02-19T06:33:41.377Z,9.50
2023-02-19T06:36:15.358Z,9.50
2023-02-19T06:38:42.505Z,9.50
2023-02-19T06:41:11.601Z,9.50
2023-02-19T06:43:38.774Z,9.50
2023-02-19T06:46:07.961Z,9.50
2023-02-19T06:48:35.492Z,9.50
2023-02-19T06:51:03.208Z,9.40
2023-02-19T06:53:30.395Z,9.50
2023-02-19T06:56:02.871Z,9.40
2023-02-19T06:58:30.494Z,9.50
2023-02-19T07:00:57.480Z,9.40
2023-02-19T07:03:26.275Z,9.50
2023-02-19T07:05:53.881Z,9.40
2023-02-19T07:08:21.154Z,9.50
2023-02-19T07:10:58.364Z,9.40
2023-02-19T07:13:26.959Z,9.50
2023-02-19T07:16:01.955Z,9.50
2023-02-19T07:18:30.298Z,9.50
2023-02-19T07:21:06.384Z,9.40
2023-02-19T07:23:48.250Z,9.50
2023-02-19T07:26:19.965Z,9.40
2023-02-19T07:28:48.886Z,9.40
2023-02-19T07:31:18.250Z,9.40
2023-02-19T07:33:46.788Z,9.40
2023-02-19T07:36:15.574Z,9.40
2023-02-19T07:38:42.702Z,9.40
2023-02-19T07:41:10.149Z,9.40
2023-02-19T07:43:38.839Z,9.50
2023-02-19T07:46:08.210Z,9.40
2023-02-19T07:48:36.451Z,9.40
2023-02-19T07:51:04.939Z,9.40
2023-02-19T07:53:33.905Z,9.40
2023-02-19T07:56:03.296Z,9.40
2023-02-19T07:58:31.136Z,9.40
2023-02-19T08:01:06.074Z,9.40
2023-02-19T08:03:33.145Z,9.40
2023-02-19T08:06:00.136Z,9.40
2023-02-19T08:08:27.131Z,9.40
2023-02-19T08:11:12.680Z,9.40
2023-02-19T08:13:39.842Z,9.40
2023-02-19T08:16:18.359Z,9.50
2023-02-19T08:18:48.567Z,9.50
2023-02-19T08:21:18.290Z,9.50
2023-02-19T08:23:46.553Z,9.50
2023-02-19T08:26:13.825Z,9.50
2023-02-19T08:28:41.615Z,9.50
2023-02-19T08:31:11.297Z,9.50
2023-02-19T08:33:38.976Z,9.50
2023-02-19T08:36:07.830Z,9.60
2023-02-19T08:38:36.492Z,9.60
2023-02-19T08:41:14.661Z,9.60
2023-02-19T08:43:42.570Z,9.70
2023-02-19T08:46:11.606Z,9.70
2023-02-19T08:48:39.540Z,9.70
2023-02-19T08:51:09.807Z,9.70
2023-02-19T08:53:39.065Z,9.80
2023-02-19T08:56:10.474Z,9.70
2023-02-19T08:58:37.746Z,9.80
2023-02-19T09:01:11.924Z,9.80
2023-02-19T09:03:39.457Z,9.90
2023-02-19T09:06:06.691Z,9.90
2023-02-19T09:08:33.746Z,9.90
2023-02-19T09:11:02.277Z,9.90
2023-02-19T09:13:29.544Z,10.00
2023-02-19T09:15:57.360Z,10.00
2023-02-19T09:18:25.194Z,10.10
2023-02-19T09:20:52.221Z,10.10
2023-02-19T09:23:19.425Z,10.10
2023-02-19T09:25:46.482Z,10.20
2023-02-19T09:28:13.524Z,10.20
2023-02-19T09:30:40.565Z,10.20
2023-02-19T09:33:07.800Z,10.20
2023-02-19T09:35:34.758Z,10.30
2023-02-19T09:38:03.181Z,10.30
2023-02-19T09:40:30.719Z,10.30
2023-02-19T09:42:58.664Z,10.30
2023-02-19T09:45:27.053Z,10.40
2023-02-19T09:47:57.205Z,10.40
2023-02-19T09:50:35.044Z,10.40
2023-02-19T09:53:06.611Z,10.40
2023-02-19T09:55:36.390Z,10.40
2023-02-19T09:58:13.576Z,10.40
2023-02-19T10:00:40.702Z,10.40
2023-02-19T10:03:14.867Z,10.40
2023-02-19T10:05:42.341Z,10.50
2023-02-19T10:08:16.107Z,10.50
2023-02-19T10:10:44.746Z,10.50
2023-02-19T10:13:34.567Z,10.50
2023-02-19T10:16:04.133Z,10.60
2023-02-19T10:18:43.092Z,10.60
2023-02-19T10:21:20.789Z,10.60
2023-02-19T10:23:55.016Z,10.60
2023-02-19T10:26:23.919Z,10.60
2023-02-19T10:28:51.177Z,10.60
2023-02-19T10:31:21.032Z,10.70
2023-02-19T10:33:56.423Z,10.70
2023-02-19T10:36:33.793Z,10.70
2023-02-19T10:39:03.422Z,10.80
2023-02-19T10:41:31.246Z,10.80
2023-02-19T10:44:13.329Z,10.80
2023-02-19T10:46:49.876Z,10.90
2023-02-19T10:49:50.122Z,10.90
2023-02-19T10:52:28.213Z,10.90
2023-02-19T10:55:15.953Z,11.00
2023-02-19T10:57:43.034Z,11.00
2023-02-19T11:00:15.833Z,11.10
2023-02-19T11:02:44.345Z,11.20
2023-02-19T11:05:17.195Z,11.20
2023-02-19T11:07:54.809Z,11.30
2023-02-19T11:10:30.817Z,11.30
2023-02-19T11:13:06.004Z,11.40
2023-02-19T11:15:35.593Z,11.40
2023-02-19T11:18:10.566Z,11.40
2023-02-19T11:20:39.482Z,11.40
2023-02-19T11:23:18.852Z,11.50
2023-02-19T11:25:48.649Z,11.50
2023-02-19T11:28:33.699Z,11.60
2023-02-19T11:31:22.825Z,11.60
2023-02-19T11:34:00.265Z,11.60
2023-02-19T11:36:31.795Z,11.60
2023-02-19T11:39:04.757Z,11.60
2023-02-19T11:41:56.494Z,11.70
2023-02-19T11:44:42.093Z,11.70
2023-02-19T11:47:21.299Z,11.80
2023-02-19T11:50:27.663Z,11.90
2023-02-19T11:53:26.413Z,11.90
2023-02-19T11:56:25.954Z,12.00
2023-02-19T11:59:04.028Z,12.10
2023-02-19T12:01:33.790Z,12.10
2023-02-19T12:04:07.027Z,12.20
2023-02-19T12:07:11.393Z,12.20
2023-02-19T12:09:47.346Z,12.20
2023-02-19T12:12:26.026Z,12.20
2023-02-19T12:15:08.120Z,12.20
2023-02-19T12:18:06.706Z,12.20
2023-02-19T12:21:05.641Z,12.30
2023-02-19T12:24:03.416Z,12.40
2023-02-19T12:26:42.307Z,12.50
2023-02-19T12:29:38.107Z,12.60
2023-02-19T12:32:31.373Z,12.70
2023-02-19T12:35:17.116Z,12.80
2023-02-19T12:38:06.042Z,12.80
2023-02-19T12:40:57.424Z,12.80
2023-02-19T12:43:25.046Z,12.80
2023-02-19T12:46:07.762Z,12.90
2023-02-19T12:48:43.249Z,12.90
2023-02-19T12:51:22.606Z,13.10
2023-02-19T12:53:59.125Z,13.20
2023-02-19T12:56:36.769Z,13.30
2023-02-19T12:59:10.220Z,13.40
2023-02-19T13:01:48.393Z,13.50
2023-02-19T13:04:18.294Z,13.50
2023-02-19T13:07:01.469Z,13.60
2023-02-19T13:09:31.831Z,13.60
2023-02-19T13:12:15.388Z,13.70
2023-02-19T13:14:46.561Z,13.70
2023-02-19T13:17:21.504Z,13.70
2023-02-19T13:19:51.913Z,13.60
2023-02-19T13:22:45.658Z,13.60
2023-02-19T13:25:15.784Z,13.60
2023-02-19T13:27:49.877Z,13.60
2023-02-19T13:30:48.956Z,13.60
2023-02-19T13:33:52.907Z,13.70
2023-02-19T13:36:26.587Z,13.60
2023-02-19T13:38:57.281Z,13.50
2023-02-19T13:41:37.997Z,13.40
2023-02-19T13:44:10.756Z,13.40
2023-02-19T13:46:43.645Z,13.30
2023-02-19T13:49:28.972Z,13.30
2023-02-19T13:51:59.915Z,13.30
2023-02-19T13:54:37.188Z,13.30
2023-02-19T13:57:22.568Z,13.30
2023-02-19T13:59:51.531Z,13.30
2023-02-19T14:02:21.587Z,13.40
2023-02-19T14:05:03.405Z,13.40
2023-02-19T14:07:53.098Z,13.40
2023-02-19T14:10:57.919Z,13.40
2023-02-19T14:13:43.529Z,13.40
2023-02-19T14:16:29.416Z,13.40
2023-02-19T14:18:56.577Z,13.40
2023-02-19T14:21:27.917Z,13.40
2023-02-19T14:23:58.948Z,13.30
2023-02-19T14:26:26.650Z,13.30
2023-02-19T14:28:54.488Z,13.20
2023-02-19T14:31:25.215Z,13.20
2023-02-19T14:33:55.293Z,13.20
2023-02-19T14:36:48.823Z,13.20
2023-02-19T14:39:24.398Z,13.30
2023-02-19T14:42:06.977Z,13.30
2023-02-19T14:44:56.797Z,13.30
2023-02-19T14:47:26.451Z,13.30
2023-02-19T14:49:59.706Z,13.30
2023-02-19T14:52:41.154Z,13.30
2023-02-19T14:55:35.489Z,13.30
2023-02-19T14:58:07.098Z,13.30
2023-02-19T15:00:37.746Z,13.20
2023-02-19T15:03:05.733Z,13.20
2023-02-19T15:05:37.454Z,13.20
2023-02-19T15:08:19.328Z,13.10
2023-02-19T15:10:47.250Z,13.10
2023-02-19T15:13:24.180Z,13.00
2023-02-19T15:15:52.101Z,13.00
2023-02-19T15:18:23.054Z,13.00
2023-02-19T15:20:51.814Z,13.00
2023-02-19T15:23:24.913Z,12.90
2023-02-19T15:25:52.634Z,12.90
2023-02-19T15:28:25.671Z,12.90
2023-02-19T15:30:58.693Z,12.90
2023-02-19T15:33:27.942Z,12.90
2023-02-19T15:36:07.391Z,12.90
2023-02-19T15:38:35.138Z,12.90
2023-02-19T15:41:02.690Z,12.90
2023-02-19T15:43:51.310Z,12.90
2023-02-19T15:46:21.044Z,12.90
2023-02-19T15:49:12.793Z,13.00
2023-02-19T15:51:57.888Z,13.00
2023-02-19T15:54:39.407Z,13.00
2023-02-19T15:57:13.551Z,12.90
2023-02-19T15:59:48.557Z,12.90
2023-02-19T16:02:16.289Z,12.90
2023-02-19T16:04:45.248Z,12.80
2023-02-19T16:07:23.653Z,12.80
2023-02-19T16:10:21.677Z,12.70
2023-02-19T16:13:09.299Z,12.70
2023-02-19T16:15:38.296Z,12.50
2023-02-19T16:18:05.351Z,12.50
2023-02-19T16:20:34.924Z,12.40
2023-02-19T16:23:12.105Z,12.40
2023-02-19T16:25:44.591Z,12.30
2023-02-19T16:28:22.821Z,12.30
2023-02-19T16:31:01.341Z,12.20
2023-02-19T16:33:37.006Z,12.10
2023-02-19T16:36:34.526Z,12.00
2023-02-19T16:39:07.761Z,11.90
2023-02-19T16:41:47.581Z,11.80
2023-02-19T16:44:27.498Z,11.80
2023-02-19T16:47:16.787Z,11.70
2023-02-19T16:49:44.259Z,11.60
2023-02-19T16:52:15.270Z,11.50
2023-02-19T16:54:42.518Z,11.50
2023-02-19T16:57:09.530Z,11.40
2023-02-19T16:59:36.511Z,11.40
2023-02-19T17:02:06.290Z,11.40
2023-02-19T17:04:34.282Z,11.30
2023-02-19T17:07:02.265Z,11.20
2023-02-19T17:09:29.527Z,11.20
2023-02-19T17:11:56.479Z,11.10
2023-02-19T17:14:23.654Z,11.00
2023-02-19T17:16:50.627Z,11.00
2023-02-19T17:19:19.865Z,11.00
2023-02-19T17:21:47.136Z,10.90
2023-02-19T17:24:14.769Z,10.90
2023-02-19T17:26:41.812Z,10.90
2023-02-19T17:29:14.763Z,10.80
2023-02-19T17:31:41.995Z,10.70
2023-02-19T17:34:09.018Z,10.70
2023-02-19T17:36:37.998Z,10.60
2023-02-19T17:39:08.750Z,10.50
2023-02-19T17:41:35.971Z,10.50
2023-02-19T17:44:03.033Z,10.40
2023-02-19T17:46:30.046Z,10.40
2023-02-19T17:48:57.158Z,10.30
2023-02-19T17:51:24.225Z,10.20
2023-02-19T17:53:51.212Z,10.10
2023-02-19T17:56:20.992Z,10.00
2023-02-19T17:58:48.157Z,9.90
2023-02-19T18:01:15.706Z,9.90
2023-02-19T18:03:43.118Z,9.90
2023-02-19T18:06:10.340Z,9.90
2023-02-19T18:08:37.776Z,9.80
2023-02-19T18:11:06.768Z,9.80
2023-02-19T18:13:33.783Z,9.70
2023-02-19T18:16:01.184Z,9.70
2023-02-19T18:18:28.260Z,9.70
2023-02-19T18:20:55.259Z,9.70
2023-02-19T18:23:22.183Z,9.70
2023-02-19T18:25:49.208Z,9.60
2023-02-19T18:28:16.819Z,9.60
2023-02-19T18:30:43.990Z,9.60
2023-02-19T18:33:13.248Z,9.50
2023-02-19T18:35:40.544Z,9.50
2023-02-19T18:38:07.737Z,9.40
2023-02-19T18:40:34.986Z,9.40
2023-02-19T18:43:01.978Z,9.40
2023-02-19T18:45:29.762Z,9.40
2023-02-19T18:47:56.803Z,9.30
2023-02-19T18:50:24.018Z,9.30
2023-02-19T18:52:51.663Z,9.30
2023-02-19T18:55:19.044Z,9.20
2023-02-19T18:57:46.680Z,9.20
2023-02-19T19:00:20.066Z,9.20
2023-02-19T19:02:50.548Z,9.10
2023-02-19T19:05:23.303Z,9.10
2023-02-19T19:07:59.304Z,9.10
2023-02-19T19:10:26.841Z,9.10
2023-02-19T19:12:54.354Z,9.00
2023-02-19T19:15:22.129Z,9.00
2023-02-19T19:17:49.653Z,9.00
2023-02-19T19:20:19.332Z,8.90
2023-02-19T19:22:48.876Z,8.90
2023-02-19T19:25:16.053Z,8.80
2023-02-19T19:27:43.133Z,8.80
2023-02-19T19:30:10.396Z,8.80
2023-02-19T19:32:38.029Z,8.70
2023-02-19T19:35:05.237Z,8.60
2023-02-19T19:37:32.510Z,8.60
2023-02-19T19:39:59.582Z,8.60
2023-02-19T19:42:26.594Z,8.50
2023-02-19T19:44:53.675Z,8.50
2023-02-19T19:47:20.878Z,8.50
2023-02-19T19:49:48.632Z,8.50
2023-02-19T19:52:15.850Z,8.50
2023-02-19T19:54:43.399Z,8.50
2023-02-19T19:57:11.235Z,8.50
2023-02-19T19:59:39.593Z,8.40
2023-02-19T20:02:07.883Z,8.40
2023-02-19T20:04:35.081Z,8.40
2023-02-19T20:07:02.693Z,8.40
2023-02-19T20:09:29.698Z,8.40
2023-02-19T20:11:57.206Z,8.40
2023-02-19T20:14:25.812Z,8.40
2023-02-19T20:16:54.975Z,8.30
2023-02-19T20:19:22.469Z,8.30
2023-02-19T20:21:51.828Z,8.30
2023-02-19T20:24:24.219Z,8.30
2023-02-19T20:26:53.825Z,8.20
2023-02-19T20:29:20.856Z,8.20
2023-02-19T20:31:49.835Z,8.20
2023-02-19T20:34:17.106Z,8.20
2023-02-19T20:36:45.497Z,8.20
2023-02-19T20:39:12.494Z,8.20
2023-02-19T20:41:40.315Z,8.20
2023-02-19T20:44:08.373Z,8.10
2023-02-19T20:46:42.156Z,8.20
2023-02-19T20:49:10.539Z,8.10
2023-02-19T20:51:50.153Z,8.10
2023-02-19T20:54:19.141Z,8.10
2023-02-19T20:56:48.211Z,8.10
2023-02-19T20:59:16.544Z,8.00
2023-02-19T21:01:44.125Z,8.00
2023-02-19T21:04:12.162Z,8.00
2023-02-19T21:06:40.297Z,8.00
2023-02-19T21:09:08.039Z,8.00
2023-02-19T21:11:35.356Z,7.90
2023-02-19T21:14:03.551Z,7.90
2023-02-19T21:16:33.343Z,7.90
2023-02-19T21:19:01.089Z,7.90
2023-02-19T21:21:30.426Z,7.90
2023-02-19T21:23:59.250Z,7.90
2023-02-19T21:26:33.678Z,7.80
2023-02-19T21:29:00.784Z,7.80
2023-02-19T21:31:37.620Z,7.80
2023-02-19T21:34:10.634Z,7.80
2023-02-19T21:36:38.849Z,7.80
2023-02-19T21:39:08.816Z,7.80
2023-02-19T21:41:36.477Z,7.80
2023-02-19T21:44:03.944Z,7.70
2023-02-19T21:46:32.979Z,7.70
2023-02-19T21:49:00.464Z,7.70
2023-02-19T21:51:33.405Z,7.70
2023-02-19T21:54:01.155Z,7.60
2023-02-19T21:56:30.288Z,7.60
2023-02-19T21:58:57.882Z,7.60
2023-02-19T22:01:27.912Z,7.60
2023-02-19T22:03:55.122Z,7.60
2023-02-19T22:06:29.090Z,7.60
2023-02-19T22:08:56.686Z,7.60
2023-02-19T22:11:23.750Z,7.50
2023-02-19T22:13:52.460Z,7.50
2023-02-19T22:16:20.442Z,7.50
2023-02-19T22:18:49.684Z,7.50
2023-02-19T22:21:17.607Z,7.50
2023-02-19T22:23:49.655Z,7.50
2023-02-19T22:26:25.749Z,7.50
2023-02-19T22:28:52.990Z,7.50
2023-02-19T22:31:23.142Z,7.50
2023-02-19T22:33:50.733Z,7.50
2023-02-19T22:36:23.597Z,7.50
2023-02-19T22:38:50.831Z,7.50
2023-02-19T22:41:18.994Z,7.60
2023-02-19T22:43:46.732Z,7.50
2023-02-19T22:46:24.569Z,7.50
2023-02-19T22:48:51.754Z,7.60
2023-02-19T22:51:21.479Z,7.50
2023-02-19T22:53:56.449Z,7.50
2023-02-19T22:56:26.132Z,7.50
2023-02-19T22:58:54.614Z,7.50
2023-02-19T23:01:22.007Z,7.50
2023-02-19T23:03:57.380Z,7.50
2023-02-19T23:06:34.737Z,7.50
2023-02-19T23:09:10.653Z,7.50
2023-02-19T23:11:39.398Z,7.50
2023-02-19T23:14:07.773Z,7.50
2023-02-19T23:16:38.026Z,7.50
2023-02-19T23:19:07.388Z,7.50
2023-02-19T23:21:34.485Z,7.50
2023-02-19T23:24:02.242Z,7.50
2023-02-19T23:26:29.378Z,7.60
2023-02-19T23:28:56.592Z,7.60
2023-02-19T23:31:23.843Z,7.60
2023-02-19T23:33:50.937Z,7.60
2023-02-19T23:36:17.966Z,7.70
2023-02-19T23:38:45.986Z,7.70
2023-02-19T23:41:14.754Z,7.80
2023-02-19T23:43:42.130Z,7.80
2023-02-19T23:46:10.119Z,7.80
2023-02-19T23:48:37.376Z,7.80
2023-02-19T23:51:04.411Z,7.90
2023-02-19T23:53:31.443Z,7.90
2023-02-19T23:55:58.543Z,7.90
2023-02-19T23:58:25.557Z,7.90
